sensor_id;sensor_type;location;lat;lon;timestamp;pressure;altitude;pressure_sealevel;temperature;humidity
55022;BME280;68328;35.990;-86.756;2023-04-26T00:01:31;99203.77;;;22.27;17.29
55022;BME280;68328;35.990;-86.756;2023-04-26T00:03:57;99198.76;;;22.19;17.14
55022;BME280;68328;35.990;-86.756;2023-04-26T00:06:21;99198.69;;;22.05;17.63
55022;BME280;68328;35.990;-86.756;2023-04-26T00:08:47;99199.40;;;21.92;18.29
55022;BME280;68328;35.990;-86.756;2023-04-26T00:11:13;99197.78;;;21.90;17.61
55022;BME280;68328;35.990;-86.756;2023-04-26T00:13:38;99199.08;;;22.22;17.92
55022;BME280;68328;35.990;-86.756;2023-04-26T00:16:04;99206.61;;;21.68;18.46
55022;BME280;68328;35.990;-86.756;2023-04-26T00:18:30;99208.91;;;21.61;18.32
55022;BME280;68328;35.990;-86.756;2023-04-26T00:20:54;99208.81;;;21.88;18.30
55022;BME280;68328;35.990;-86.756;2023-04-26T00:23:19;99206.97;;;21.28;18.64
55022;BME280;68328;35.990;-86.756;2023-04-26T00:25:45;99206.63;;;21.62;19.50
55022;BME280;68328;35.990;-86.756;2023-04-26T00:28:11;99204.60;;;21.30;20.58
55022;BME280;68328;35.990;-86.756;2023-04-26T00:30:36;99209.85;;;21.14;20.17
55022;BME280;68328;35.990;-86.756;2023-04-26T00:33:02;99207.29;;;21.00;21.20
55022;BME280;68328;35.990;-86.756;2023-04-26T00:35:27;99207.10;;;20.64;21.99
55022;BME280;68328;35.990;-86.756;2023-04-26T00:37:52;99207.71;;;20.39;20.88
55022;BME280;68328;35.990;-86.756;2023-04-26T00:40:18;99207.63;;;20.28;21.09
55022;BME280;68328;35.990;-86.756;2023-04-26T00:42:45;99210.27;;;20.37;21.83
55022;BME280;68328;35.990;-86.756;2023-04-26T00:45:09;99208.38;;;19.71;21.10
55022;BME280;68328;35.990;-86.756;2023-04-26T00:47:35;99215.34;;;19.32;21.43
55022;BME280;68328;35.990;-86.756;2023-04-26T00:50:00;99214.69;;;19.44;21.32
55022;BME280;68328;35.990;-86.756;2023-04-26T00:52:26;99216.94;;;18.99;21.41
55022;BME280;68328;35.990;-86.756;2023-04-26T00:54:50;99221.61;;;19.21;21.71
55022;BME280;68328;35.990;-86.756;2023-04-26T00:57:15;99223.12;;;19.15;22.65
55022;BME280;68328;35.990;-86.756;2023-04-26T00:59:40;99223.53;;;19.07;23.42
55022;BME280;68328;35.990;-86.756;2023-04-26T01:02:07;99222.65;;;18.89;23.28
55022;BME280;68328;35.990;-86.756;2023-04-26T01:04:31;99218.84;;;18.85;23.71
55022;BME280;68328;35.990;-86.756;2023-04-26T01:06:58;99223.56;;;18.75;22.88
55022;BME280;68328;35.990;-86.756;2023-04-26T01:09:22;99224.62;;;18.94;22.64
55022;BME280;68328;35.990;-86.756;2023-04-26T01:11:47;99224.80;;;18.81;24.05
55022;BME280;68328;35.990;-86.756;2023-04-26T01:14:14;99224.91;;;18.54;24.30
55022;BME280;68328;35.990;-86.756;2023-04-26T01:16:39;99223.04;;;18.46;24.10
55022;BME280;68328;35.990;-86.756;2023-04-26T01:19:08;99220.37;;;18.37;23.29
55022;BME280;68328;35.990;-86.756;2023-04-26T01:21:29;99220.49;;;18.18;23.86
55022;BME280;68328;35.990;-86.756;2023-04-26T01:23:54;99222.91;;;18.48;24.55
55022;BME280;68328;35.990;-86.756;2023-04-26T01:26:19;99223.56;;;18.49;24.13
55022;BME280;68328;35.990;-86.756;2023-04-26T01:28:45;99225.67;;;18.23;24.58
55022;BME280;68328;35.990;-86.756;2023-04-26T01:31:10;99231.40;;;18.57;26.10
55022;BME280;68328;35.990;-86.756;2023-04-26T01:33:36;99232.80;;;18.45;26.24
55022;BME280;68328;35.990;-86.756;2023-04-26T01:36:00;99231.48;;;18.11;25.00
55022;BME280;68328;35.990;-86.756;2023-04-26T01:38:26;99234.10;;;17.98;26.05
55022;BME280;68328;35.990;-86.756;2023-04-26T01:40:51;99235.46;;;18.06;25.70
55022;BME280;68328;35.990;-86.756;2023-04-26T01:43:17;99238.14;;;17.83;27.63
55022;BME280;68328;35.990;-86.756;2023-04-26T01:45:45;99235.86;;;17.88;26.70
55022;BME280;68328;35.990;-86.756;2023-04-26T01:48:08;99239.46;;;17.52;27.64
55022;BME280;68328;35.990;-86.756;2023-04-26T01:50:33;99242.85;;;17.74;27.41
55022;BME280;68328;35.990;-86.756;2023-04-26T01:52:58;99243.52;;;17.65;27.99
55022;BME280;68328;35.990;-86.756;2023-04-26T01:55:24;99241.22;;;17.54;27.84
55022;BME280;68328;35.990;-86.756;2023-04-26T01:57:50;99249.66;;;17.38;28.26
55022;BME280;68328;35.990;-86.756;2023-04-26T02:00:15;99252.71;;;17.35;28.50
55022;BME280;68328;35.990;-86.756;2023-04-26T02:02:40;99258.14;;;17.36;28.47
55022;BME280;68328;35.990;-86.756;2023-04-26T02:05:08;99261.87;;;17.55;28.15
55022;BME280;68328;35.990;-86.756;2023-04-26T02:07:31;99260.16;;;17.57;29.39
55022;BME280;68328;35.990;-86.756;2023-04-26T02:09:56;99262.92;;;17.02;28.90
55022;BME280;68328;35.990;-86.756;2023-04-26T02:12:21;99265.60;;;17.22;28.95
55022;BME280;68328;35.990;-86.756;2023-04-26T02:14:47;99266.41;;;17.31;30.40
55022;BME280;68328;35.990;-86.756;2023-04-26T02:17:12;99264.54;;;17.03;30.62
55022;BME280;68328;35.990;-86.756;2023-04-26T02:19:37;99266.87;;;17.02;29.80
55022;BME280;68328;35.990;-86.756;2023-04-26T02:22:05;99273.18;;;16.76;29.75
55022;BME280;68328;35.990;-86.756;2023-04-26T02:24:28;99276.16;;;16.97;30.00
55022;BME280;68328;35.990;-86.756;2023-04-26T02:26:53;99276.45;;;16.88;30.47
55022;BME280;68328;35.990;-86.756;2023-04-26T02:29:18;99277.72;;;17.02;30.33
55022;BME280;68328;35.990;-86.756;2023-04-26T02:31:44;99278.29;;;17.00;30.08
55022;BME280;68328;35.990;-86.756;2023-04-26T02:34:10;99278.97;;;17.02;31.14
55022;BME280;68328;35.990;-86.756;2023-04-26T02:36:35;99283.16;;;16.78;29.81
55022;BME280;68328;35.990;-86.756;2023-04-26T02:39:00;99281.86;;;16.95;29.88
55022;BME280;68328;35.990;-86.756;2023-04-26T02:41:25;99281.64;;;16.62;31.19
55022;BME280;68328;35.990;-86.756;2023-04-26T02:43:51;99283.95;;;16.54;29.93
55022;BME280;68328;35.990;-86.756;2023-04-26T02:46:16;99287.86;;;16.65;30.17
55022;BME280;68328;35.990;-86.756;2023-04-26T02:48:42;99286.84;;;16.49;30.35
55022;BME280;68328;35.990;-86.756;2023-04-26T02:51:07;99289.65;;;16.42;30.85
55022;BME280;68328;35.990;-86.756;2023-04-26T02:53:32;99288.82;;;16.45;31.44
55022;BME280;68328;35.990;-86.756;2023-04-26T02:55:57;99290.99;;;16.45;32.10
55022;BME280;68328;35.990;-86.756;2023-04-26T02:58:22;99294.30;;;16.47;31.94
55022;BME280;68328;35.990;-86.756;2023-04-26T03:00:48;99299.42;;;16.60;31.40
55022;BME280;68328;35.990;-86.756;2023-04-26T03:03:14;99299.11;;;16.32;33.09
55022;BME280;68328;35.990;-86.756;2023-04-26T03:05:39;99299.35;;;16.40;31.78
55022;BME280;68328;35.990;-86.756;2023-04-26T03:08:05;99301.95;;;16.36;31.98
55022;BME280;68328;35.990;-86.756;2023-04-26T03:10:29;99299.79;;;16.27;31.48
55022;BME280;68328;35.990;-86.756;2023-04-26T03:12:55;99296.93;;;16.41;31.84
55022;BME280;68328;35.990;-86.756;2023-04-26T03:15:20;99298.80;;;16.41;31.72
55022;BME280;68328;35.990;-86.756;2023-04-26T03:17:45;99302.26;;;16.13;31.66
55022;BME280;68328;35.990;-86.756;2023-04-26T03:20:11;99300.49;;;16.20;31.73
55022;BME280;68328;35.990;-86.756;2023-04-26T03:22:36;99297.60;;;15.81;32.47
55022;BME280;68328;35.990;-86.756;2023-04-26T03:25:02;99294.78;;;15.93;31.62
55022;BME280;68328;35.990;-86.756;2023-04-26T03:27:26;99296.72;;;15.80;32.25
55022;BME280;68328;35.990;-86.756;2023-04-26T03:29:52;99297.45;;;16.05;33.70
55022;BME280;68328;35.990;-86.756;2023-04-26T03:32:18;99298.56;;;15.85;33.74
55022;BME280;68328;35.990;-86.756;2023-04-26T03:34:43;99297.15;;;15.75;32.46
55022;BME280;68328;35.990;-86.756;2023-04-26T03:37:08;99297.92;;;15.60;33.35
55022;BME280;68328;35.990;-86.756;2023-04-26T03:39:33;99300.16;;;15.66;33.19
55022;BME280;68328;35.990;-86.756;2023-04-26T03:41:59;99301.94;;;15.89;33.21
55022;BME280;68328;35.990;-86.756;2023-04-26T03:44:24;99304.54;;;15.43;32.77
55022;BME280;68328;35.990;-86.756;2023-04-26T03:46:49;99306.78;;;15.34;32.98
55022;BME280;68328;35.990;-86.756;2023-04-26T03:49:16;99308.46;;;15.49;33.83
55022;BME280;68328;35.990;-86.756;2023-04-26T03:51:40;99310.48;;;15.49;33.64
55022;BME280;68328;35.990;-86.756;2023-04-26T03:54:06;99308.70;;;15.46;34.12
55022;BME280;68328;35.990;-86.756;2023-04-26T03:56:31;99310.71;;;15.87;32.85
55022;BME280;68328;35.990;-86.756;2023-04-26T03:58:56;99311.47;;;15.49;32.28
55022;BME280;68328;35.990;-86.756;2023-04-26T04:01:22;99312.94;;;15.45;34.30
55022;BME280;68328;35.990;-86.756;2023-04-26T04:03:47;99314.21;;;15.35;34.03
55022;BME280;68328;35.990;-86.756;2023-04-26T04:06:12;99316.82;;;15.24;33.78
55022;BME280;68328;35.990;-86.756;2023-04-26T04:08:37;99317.05;;;15.22;33.65
55022;BME280;68328;35.990;-86.756;2023-04-26T04:11:02;99320.01;;;15.18;34.38
55022;BME280;68328;35.990;-86.756;2023-04-26T04:13:28;99321.19;;;15.17;33.94
55022;BME280;68328;35.990;-86.756;2023-04-26T04:15:53;99324.27;;;15.21;33.70
55022;BME280;68328;35.990;-86.756;2023-04-26T04:18:18;99328.18;;;15.19;33.57
55022;BME280;68328;35.990;-86.756;2023-04-26T04:20:44;99329.80;;;14.87;34.33
55022;BME280;68328;35.990;-86.756;2023-04-26T04:23:09;99333.28;;;15.04;32.66
55022;BME280;68328;35.990;-86.756;2023-04-26T04:25:35;99335.94;;;14.92;32.70
55022;BME280;68328;35.990;-86.756;2023-04-26T04:27:59;99337.01;;;14.85;34.53
55022;BME280;68328;35.990;-86.756;2023-04-26T04:30:26;99342.57;;;15.26;34.77
55022;BME280;68328;35.990;-86.756;2023-04-26T04:32:50;99342.79;;;14.93;33.77
55022;BME280;68328;35.990;-86.756;2023-04-26T04:35:16;99339.23;;;14.76;33.13
55022;BME280;68328;35.990;-86.756;2023-04-26T04:37:41;99339.04;;;14.88;33.77
55022;BME280;68328;35.990;-86.756;2023-04-26T04:40:07;99342.05;;;14.85;33.88
55022;BME280;68328;35.990;-86.756;2023-04-26T04:42:32;99344.25;;;14.34;34.05
55022;BME280;68328;35.990;-86.756;2023-04-26T04:44:57;99345.22;;;14.50;34.40
55022;BME280;68328;35.990;-86.756;2023-04-26T04:47:22;99346.11;;;14.77;35.05
55022;BME280;68328;35.990;-86.756;2023-04-26T04:49:48;99348.13;;;14.70;34.87
55022;BME280;68328;35.990;-86.756;2023-04-26T04:52:13;99348.73;;;14.66;33.89
55022;BME280;68328;35.990;-86.756;2023-04-26T04:54:39;99351.10;;;14.56;33.33
55022;BME280;68328;35.990;-86.756;2023-04-26T04:57:05;99350.95;;;14.56;34.58
55022;BME280;68328;35.990;-86.756;2023-04-26T04:59:29;99353.89;;;14.53;35.30
55022;BME280;68328;35.990;-86.756;2023-04-26T05:01:56;99354.07;;;14.41;36.08
55022;BME280;68328;35.990;-86.756;2023-04-26T05:04:20;99355.52;;;14.42;35.71
55022;BME280;68328;35.990;-86.756;2023-04-26T05:06:45;99353.38;;;14.44;33.73
55022;BME280;68328;35.990;-86.756;2023-04-26T05:09:10;99353.84;;;14.11;34.11
55022;BME280;68328;35.990;-86.756;2023-04-26T05:11:36;99352.55;;;14.19;33.74
55022;BME280;68328;35.990;-86.756;2023-04-26T05:14:02;99354.10;;;14.22;36.18
55022;BME280;68328;35.990;-86.756;2023-04-26T05:16:27;99356.15;;;14.29;36.35
55022;BME280;68328;35.990;-86.756;2023-04-26T05:18:52;99355.94;;;14.37;35.73
55022;BME280;68328;35.990;-86.756;2023-04-26T05:21:17;99356.87;;;14.11;35.30
55022;BME280;68328;35.990;-86.756;2023-04-26T05:23:42;99354.82;;;14.33;34.46
55022;BME280;68328;35.990;-86.756;2023-04-26T05:26:12;99354.34;;;14.09;35.66
55022;BME280;68328;35.990;-86.756;2023-04-26T05:28:34;99354.99;;;14.30;35.90
55022;BME280;68328;35.990;-86.756;2023-04-26T05:30:58;99350.99;;;14.24;36.07
55022;BME280;68328;35.990;-86.756;2023-04-26T05:33:23;99350.72;;;14.31;36.98
55022;BME280;68328;35.990;-86.756;2023-04-26T05:35:49;99351.61;;;14.32;35.44
55022;BME280;68328;35.990;-86.756;2023-04-26T05:38:14;99348.54;;;14.29;35.07
55022;BME280;68328;35.990;-86.756;2023-04-26T05:40:40;99343.42;;;14.03;35.47
55022;BME280;68328;35.990;-86.756;2023-04-26T05:43:05;99343.03;;;14.18;36.15
55022;BME280;68328;35.990;-86.756;2023-04-26T05:45:30;99339.10;;;14.41;36.32
55022;BME280;68328;35.990;-86.756;2023-04-26T05:47:55;99340.22;;;14.14;37.16
55022;BME280;68328;35.990;-86.756;2023-04-26T05:50:21;99340.24;;;14.21;37.02
55022;BME280;68328;35.990;-86.756;2023-04-26T05:52:46;99336.11;;;14.21;36.90
55022;BME280;68328;35.990;-86.756;2023-04-26T05:55:11;99332.40;;;13.99;37.21
55022;BME280;68328;35.990;-86.756;2023-04-26T05:57:36;99331.52;;;14.27;37.21
55022;BME280;68328;35.990;-86.756;2023-04-26T06:00:03;99326.33;;;14.28;36.85
55022;BME280;68328;35.990;-86.756;2023-04-26T06:02:26;99318.59;;;14.04;37.69
55022;BME280;68328;35.990;-86.756;2023-04-26T06:04:52;99312.82;;;13.86;38.23
55022;BME280;68328;35.990;-86.756;2023-04-26T06:07:17;99310.69;;;13.97;37.52
55022;BME280;68328;35.990;-86.756;2023-04-26T06:09:43;99310.80;;;14.16;37.09
55022;BME280;68328;35.990;-86.756;2023-04-26T06:12:08;99311.52;;;14.11;36.95
55022;BME280;68328;35.990;-86.756;2023-04-26T06:14:34;99309.81;;;14.20;37.39
55022;BME280;68328;35.990;-86.756;2023-04-26T06:17:00;99305.95;;;14.30;36.39
55022;BME280;68328;35.990;-86.756;2023-04-26T06:19:24;99301.57;;;14.36;36.03
55022;BME280;68328;35.990;-86.756;2023-04-26T06:21:50;99302.53;;;14.36;36.77
55022;BME280;68328;35.990;-86.756;2023-04-26T06:24:16;99301.75;;;14.43;37.55
55022;BME280;68328;35.990;-86.756;2023-04-26T06:26:41;99300.68;;;14.34;37.44
55022;BME280;68328;35.990;-86.756;2023-04-26T06:29:06;99296.29;;;14.30;37.51
55022;BME280;68328;35.990;-86.756;2023-04-26T06:31:31;99293.74;;;14.33;37.87
55022;BME280;68328;35.990;-86.756;2023-04-26T06:33:56;99299.91;;;14.36;37.31
55022;BME280;68328;35.990;-86.756;2023-04-26T06:36:22;99301.13;;;14.07;37.86
55022;BME280;68328;35.990;-86.756;2023-04-26T06:38:47;99302.52;;;14.20;37.94
55022;BME280;68328;35.990;-86.756;2023-04-26T06:41:13;99299.98;;;14.07;38.28
55022;BME280;68328;35.990;-86.756;2023-04-26T06:43:38;99298.00;;;14.12;37.24
55022;BME280;68328;35.990;-86.756;2023-04-26T06:46:04;99294.88;;;14.35;37.64
55022;BME280;68328;35.990;-86.756;2023-04-26T06:48:29;99292.11;;;14.05;37.68
55022;BME280;68328;35.990;-86.756;2023-04-26T06:50:54;99286.84;;;14.32;37.85
55022;BME280;68328;35.990;-86.756;2023-04-26T06:53:20;99285.35;;;14.33;36.83
55022;BME280;68328;35.990;-86.756;2023-04-26T06:55:45;99286.27;;;14.24;37.50
55022;BME280;68328;35.990;-86.756;2023-04-26T06:58:10;99285.34;;;13.95;37.54
55022;BME280;68328;35.990;-86.756;2023-04-26T07:00:35;99283.27;;;14.17;37.85
55022;BME280;68328;35.990;-86.756;2023-04-26T07:03:01;99280.02;;;14.20;36.53
55022;BME280;68328;35.990;-86.756;2023-04-26T07:05:26;99281.04;;;14.33;36.61
55022;BME280;68328;35.990;-86.756;2023-04-26T07:07:52;99281.85;;;13.96;37.04
55022;BME280;68328;35.990;-86.756;2023-04-26T07:10:17;99285.31;;;14.15;37.75
55022;BME280;68328;35.990;-86.756;2023-04-26T07:12:42;99286.37;;;14.04;38.24
55022;BME280;68328;35.990;-86.756;2023-04-26T07:15:08;99286.66;;;13.89;38.41
55022;BME280;68328;35.990;-86.756;2023-04-26T07:17:33;99285.99;;;14.09;38.06
55022;BME280;68328;35.990;-86.756;2023-04-26T07:19:58;99281.55;;;13.50;38.66
55022;BME280;68328;35.990;-86.756;2023-04-26T07:22:23;99279.41;;;13.45;38.90
55022;BME280;68328;35.990;-86.756;2023-04-26T07:24:49;99280.10;;;13.54;39.03
55022;BME280;68328;35.990;-86.756;2023-04-26T07:27:14;99274.32;;;13.68;36.84
55022;BME280;68328;35.990;-86.756;2023-04-26T07:29:39;99276.71;;;13.45;37.18
55022;BME280;68328;35.990;-86.756;2023-04-26T07:32:06;99275.78;;;13.47;38.54
55022;BME280;68328;35.990;-86.756;2023-04-26T07:34:30;99277.84;;;13.48;38.83
55022;BME280;68328;35.990;-86.756;2023-04-26T07:36:56;99277.67;;;13.51;38.57
55022;BME280;68328;35.990;-86.756;2023-04-26T07:39:20;99274.77;;;13.53;38.59
55022;BME280;68328;35.990;-86.756;2023-04-26T07:41:46;99269.48;;;13.23;38.06
55022;BME280;68328;35.990;-86.756;2023-04-26T07:44:12;99271.01;;;13.17;38.16
55022;BME280;68328;35.990;-86.756;2023-04-26T07:46:37;99273.89;;;13.12;38.37
55022;BME280;68328;35.990;-86.756;2023-04-26T07:49:03;99276.32;;;13.49;38.75
55022;BME280;68328;35.990;-86.756;2023-04-26T07:51:28;99280.99;;;13.56;38.13
55022;BME280;68328;35.990;-86.756;2023-04-26T07:53:53;99279.35;;;13.57;37.88
55022;BME280;68328;35.990;-86.756;2023-04-26T07:56:19;99280.94;;;13.77;37.89
55022;BME280;68328;35.990;-86.756;2023-04-26T07:58:44;99285.42;;;13.64;38.25
55022;BME280;68328;35.990;-86.756;2023-04-26T08:01:10;99286.01;;;13.52;37.94
55022;BME280;68328;35.990;-86.756;2023-04-26T08:03:35;99288.74;;;13.68;37.90
55022;BME280;68328;35.990;-86.756;2023-04-26T08:06:00;99297.59;;;13.71;38.78
55022;BME280;68328;35.990;-86.756;2023-04-26T08:08:26;99299.35;;;13.50;38.87
55022;BME280;68328;35.990;-86.756;2023-04-26T08:10:51;99292.25;;;13.77;38.48
55022;BME280;68328;35.990;-86.756;2023-04-26T08:13:16;99291.46;;;13.71;39.17
55022;BME280;68328;35.990;-86.756;2023-04-26T08:15:41;99295.84;;;13.77;39.00
55022;BME280;68328;35.990;-86.756;2023-04-26T08:18:06;99300.73;;;13.73;37.53
55022;BME280;68328;35.990;-86.756;2023-04-26T08:20:32;99306.68;;;13.69;38.48
55022;BME280;68328;35.990;-86.756;2023-04-26T08:22:57;99308.66;;;13.69;39.09
55022;BME280;68328;35.990;-86.756;2023-04-26T08:25:22;99309.98;;;13.50;38.24
55022;BME280;68328;35.990;-86.756;2023-04-26T08:27:48;99309.23;;;13.58;38.00
55022;BME280;68328;35.990;-86.756;2023-04-26T08:30:13;99307.72;;;13.58;37.75
55022;BME280;68328;35.990;-86.756;2023-04-26T08:32:38;99310.94;;;13.74;38.64
55022;BME280;68328;35.990;-86.756;2023-04-26T08:35:05;99311.93;;;13.58;37.74
55022;BME280;68328;35.990;-86.756;2023-04-26T08:37:29;99311.17;;;13.54;38.92
55022;BME280;68328;35.990;-86.756;2023-04-26T08:39:55;99313.61;;;13.16;39.93
55022;BME280;68328;35.990;-86.756;2023-04-26T08:42:25;99317.20;;;13.33;39.76
55022;BME280;68328;35.990;-86.756;2023-04-26T08:44:45;99316.65;;;13.48;38.21
55022;BME280;68328;35.990;-86.756;2023-04-26T08:47:15;99318.78;;;13.48;37.92
55022;BME280;68328;35.990;-86.756;2023-04-26T08:49:39;99312.69;;;13.54;38.48
55022;BME280;68328;35.990;-86.756;2023-04-26T08:52:03;99311.11;;;13.56;38.32
55022;BME280;68328;35.990;-86.756;2023-04-26T08:54:28;99311.98;;;13.45;39.11
55022;BME280;68328;35.990;-86.756;2023-04-26T08:56:54;99313.14;;;13.21;40.06
55022;BME280;68328;35.990;-86.756;2023-04-26T08:59:19;99319.18;;;13.23;39.57
55022;BME280;68328;35.990;-86.756;2023-04-26T09:01:44;99321.42;;;13.40;39.05
55022;BME280;68328;35.990;-86.756;2023-04-26T09:04:09;99319.91;;;13.57;37.84
55022;BME280;68328;35.990;-86.756;2023-04-26T09:06:34;99316.53;;;13.72;36.85
55022;BME280;68328;35.990;-86.756;2023-04-26T09:09:01;99314.54;;;13.53;37.17
55022;BME280;68328;35.990;-86.756;2023-04-26T09:11:24;99312.31;;;13.60;36.87
55022;BME280;68328;35.990;-86.756;2023-04-26T09:13:50;99315.43;;;13.33;36.93
55022;BME280;68328;35.990;-86.756;2023-04-26T09:16:15;99312.85;;;13.89;38.26
55022;BME280;68328;35.990;-86.756;2023-04-26T09:18:49;99311.70;;;13.62;37.29
55022;BME280;68328;35.990;-86.756;2023-04-26T09:21:07;99310.46;;;13.42;37.89
55022;BME280;68328;35.990;-86.756;2023-04-26T09:23:31;99310.92;;;13.82;38.45
55022;BME280;68328;35.990;-86.756;2023-04-26T09:25:56;99308.95;;;13.23;39.46
55022;BME280;68328;35.990;-86.756;2023-04-26T09:28:22;99310.66;;;13.41;40.17
55022;BME280;68328;35.990;-86.756;2023-04-26T09:30:48;99314.43;;;13.53;39.08
55022;BME280;68328;35.990;-86.756;2023-04-26T09:33:12;99315.64;;;13.54;37.97
55022;BME280;68328;35.990;-86.756;2023-04-26T09:35:38;99315.06;;;13.32;38.40
55022;BME280;68328;35.990;-86.756;2023-04-26T09:38:04;99310.08;;;13.06;37.39
55022;BME280;68328;35.990;-86.756;2023-04-26T09:40:28;99314.93;;;13.24;38.35
55022;BME280;68328;35.990;-86.756;2023-04-26T09:42:58;99315.75;;;13.48;39.56
55022;BME280;68328;35.990;-86.756;2023-04-26T09:45:19;99315.19;;;13.09;39.58
55022;BME280;68328;35.990;-86.756;2023-04-26T09:47:44;99323.91;;;13.18;39.39
55022;BME280;68328;35.990;-86.756;2023-04-26T09:50:09;99329.32;;;13.45;39.86
55022;BME280;68328;35.990;-86.756;2023-04-26T09:52:43;99325.08;;;13.27;39.57
55022;BME280;68328;35.990;-86.756;2023-04-26T09:55:01;99316.15;;;13.09;39.12
55022;BME280;68328;35.990;-86.756;2023-04-26T09:57:27;99311.86;;;13.31;39.33
55022;BME280;68328;35.990;-86.756;2023-04-26T09:59:52;99310.73;;;13.19;40.25
55022;BME280;68328;35.990;-86.756;2023-04-26T10:02:18;99310.96;;;13.37;39.60
55022;BME280;68328;35.990;-86.756;2023-04-26T10:04:44;99312.13;;;13.37;38.87
55022;BME280;68328;35.990;-86.756;2023-04-26T10:07:07;99310.63;;;13.41;39.24
55022;BME280;68328;35.990;-86.756;2023-04-26T10:09:33;99306.52;;;13.30;39.14
55022;BME280;68328;35.990;-86.756;2023-04-26T10:11:58;99304.26;;;13.57;39.95
55022;BME280;68328;35.990;-86.756;2023-04-26T10:14:24;99302.52;;;13.81;39.25
55022;BME280;68328;35.990;-86.756;2023-04-26T10:16:49;99300.16;;;13.62;39.77
55022;BME280;68328;35.990;-86.756;2023-04-26T10:19:14;99293.32;;;13.63;39.54
55022;BME280;68328;35.990;-86.756;2023-04-26T10:21:40;99292.96;;;13.59;39.76
55022;BME280;68328;35.990;-86.756;2023-04-26T10:24:06;99291.13;;;13.44;39.76
55022;BME280;68328;35.990;-86.756;2023-04-26T10:26:45;99287.07;;;13.64;39.90
55022;BME280;68328;35.990;-86.756;2023-04-26T10:28:55;99289.00;;;13.74;40.26
55022;BME280;68328;35.990;-86.756;2023-04-26T10:31:22;99291.33;;;13.75;39.85
55022;BME280;68328;35.990;-86.756;2023-04-26T10:36:12;99303.15;;;13.22;40.64
55022;BME280;68328;35.990;-86.756;2023-04-26T10:38:38;99302.64;;;13.56;40.44
55022;BME280;68328;35.990;-86.756;2023-04-26T10:43:28;99305.92;;;13.09;40.50
55022;BME280;68328;35.990;-86.756;2023-04-26T10:45:53;99301.40;;;13.33;40.97
55022;BME280;68328;35.990;-86.756;2023-04-26T10:48:20;99306.08;;;13.67;40.72
55022;BME280;68328;35.990;-86.756;2023-04-26T10:53:10;99321.11;;;13.38;40.17
55022;BME280;68328;35.990;-86.756;2023-04-26T10:55:38;99316.67;;;13.44;40.01
55022;BME280;68328;35.990;-86.756;2023-04-26T10:58:00;99316.52;;;13.66;39.82
55022;BME280;68328;35.990;-86.756;2023-04-26T11:00:27;99322.09;;;13.51;40.65
55022;BME280;68328;35.990;-86.756;2023-04-26T11:02:55;99331.16;;;13.57;40.48
55022;BME280;68328;35.990;-86.756;2023-04-26T11:07:40;99331.41;;;13.93;39.76
55022;BME280;68328;35.990;-86.756;2023-04-26T11:10:08;99333.38;;;13.73;40.14
55022;BME280;68328;35.990;-86.756;2023-04-26T11:12:33;99327.95;;;13.56;40.43
55022;BME280;68328;35.990;-86.756;2023-04-26T11:14:59;99323.31;;;13.97;40.60
55022;BME280;68328;35.990;-86.756;2023-04-26T11:17:23;99326.12;;;13.67;41.06
55022;BME280;68328;35.990;-86.756;2023-04-26T11:19:47;99336.54;;;13.63;40.93
55022;BME280;68328;35.990;-86.756;2023-04-26T11:22:14;99341.45;;;13.40;40.02
55022;BME280;68328;35.990;-86.756;2023-04-26T11:24:38;99349.25;;;13.70;39.72
55022;BME280;68328;35.990;-86.756;2023-04-26T11:27:08;99354.14;;;13.98;40.12
55022;BME280;68328;35.990;-86.756;2023-04-26T11:29:29;99358.56;;;13.56;41.03
55022;BME280;68328;35.990;-86.756;2023-04-26T11:31:56;99357.86;;;13.72;40.94
55022;BME280;68328;35.990;-86.756;2023-04-26T11:34:21;99357.15;;;13.86;40.78
55022;BME280;68328;35.990;-86.756;2023-04-26T11:36:45;99359.22;;;14.00;40.47
55022;BME280;68328;35.990;-86.756;2023-04-26T11:39:10;99356.54;;;13.98;40.07
55022;BME280;68328;35.990;-86.756;2023-04-26T11:41:36;99360.52;;;14.17;40.29
55022;BME280;68328;35.990;-86.756;2023-04-26T11:44:01;99365.51;;;14.20;40.12
55022;BME280;68328;35.990;-86.756;2023-04-26T11:46:26;99380.23;;;14.02;41.10
55022;BME280;68328;35.990;-86.756;2023-04-26T11:48:52;99402.44;;;10.39;48.68
55022;BME280;68328;35.990;-86.756;2023-04-26T11:51:17;99408.09;;;12.06;42.65
55022;BME280;68328;35.990;-86.756;2023-04-26T11:53:42;99405.42;;;12.80;40.10
55022;BME280;68328;35.990;-86.756;2023-04-26T11:56:14;99405.80;;;13.58;38.79
55022;BME280;68328;35.990;-86.756;2023-04-26T11:58:33;99416.19;;;11.70;37.83
55022;BME280;68328;35.990;-86.756;2023-04-26T12:01:00;99415.20;;;13.32;37.28
55022;BME280;68328;35.990;-86.756;2023-04-26T12:03:29;99415.53;;;13.77;36.92
55022;BME280;68328;35.990;-86.756;2023-04-26T12:05:53;99415.49;;;14.37;35.84
55022;BME280;68328;35.990;-86.756;2023-04-26T12:08:15;99409.55;;;14.58;35.03
55022;BME280;68328;35.990;-86.756;2023-04-26T12:10:42;99402.05;;;14.64;34.90
55022;BME280;68328;35.990;-86.756;2023-04-26T12:13:06;99399.19;;;14.85;35.44
55022;BME280;68328;35.990;-86.756;2023-04-26T12:15:33;99396.63;;;15.08;34.39
55022;BME280;68328;35.990;-86.756;2023-04-26T12:17:59;99398.83;;;15.00;32.75
55022;BME280;68328;35.990;-86.756;2023-04-26T12:20:29;99404.69;;;15.08;35.00
55022;BME280;68328;35.990;-86.756;2023-04-26T12:22:57;99399.51;;;15.27;36.95
55022;BME280;68328;35.990;-86.756;2023-04-26T12:25:12;99401.43;;;15.29;36.23
55022;BME280;68328;35.990;-86.756;2023-04-26T12:27:38;99404.34;;;15.27;36.70
55022;BME280;68328;35.990;-86.756;2023-04-26T12:30:05;99397.20;;;15.08;35.18
55022;BME280;68328;35.990;-86.756;2023-04-26T12:32:28;99393.80;;;15.46;35.42
55022;BME280;68328;35.990;-86.756;2023-04-26T12:34:53;99391.67;;;15.34;34.91
55022;BME280;68328;35.990;-86.756;2023-04-26T12:37:19;99395.99;;;15.42;35.08
55022;BME280;68328;35.990;-86.756;2023-04-26T12:39:44;99401.01;;;15.43;34.77